Vraca, Bulgaria
Current Conditions -  °F | °C
As of 4:00 PM on Friday 19 Dec 2014 (Local Time) from LBSF Reporting Station
Clear Clear  
Wind Chill: 52°   Ceiling: Unl
Heat Index: 52°   Visibility: 6mi
Dew Point: 37°   Wind: 12mph
Humidity: 58%   Direction: 320°NW
Pressure: 30.15"   Gusts: NA
Location:  43.22°N, 23.56°E
Report Text: LBSF 191300Z 32010KT 290V350 CAVOK 11/03 Q1021 NOSIG
Loading
Personal Weather Stations






























Interactive Weather Map New forecast layout! Learn more

10-Day Weather Forecast

Advertisements
Track Severe Weather on mobile